sensor_id;sensor_type;location;lat;lon;timestamp;P1;durP1;ratioP1;P2;durP2;ratioP2
77828;SDS011;67019;51.034;3.728;2024-01-15T00:01:41;8.18;;;2.27;;
77828;SDS011;67019;51.034;3.728;2024-01-15T00:04:10;5.35;;;2.62;;
77828;SDS011;67019;51.034;3.728;2024-01-15T00:06:38;9.05;;;2.80;;
77828;SDS011;67019;51.034;3.728;2024-01-15T00:09:05;9.13;;;3.02;;
77828;SDS011;67019;51.034;3.728;2024-01-15T00:11:33;5.60;;;2.52;;
77828;SDS011;67019;51.034;3.728;2024-01-15T00:14:00;9.48;;;3.42;;
77828;SDS011;67019;51.034;3.728;2024-01-15T00:16:29;4.67;;;2.95;;
77828;SDS011;67019;51.034;3.728;2024-01-15T00:18:56;5.47;;;2.70;;
77828;SDS011;67019;51.034;3.728;2024-01-15T00:21:24;10.60;;;3.10;;
77828;SDS011;67019;51.034;3.728;2024-01-15T00:23:53;4.20;;;2.47;;
77828;SDS011;67019;51.034;3.728;2024-01-15T00:26:20;9.75;;;3.77;;
77828;SDS011;67019;51.034;3.728;2024-01-15T00:28:48;3.45;;;2.70;;
77828;SDS011;67019;51.034;3.728;2024-01-15T00:31:16;7.45;;;3.08;;
77828;SDS011;67019;51.034;3.728;2024-01-15T00:33:43;11.45;;;3.02;;
77828;SDS011;67019;51.034;3.728;2024-01-15T00:36:11;4.72;;;3.05;;
77828;SDS011;67019;51.034;3.728;2024-01-15T00:38:40;8.13;;;2.33;;
77828;SDS011;67019;51.034;3.728;2024-01-15T00:41:08;9.08;;;3.00;;
77828;SDS011;67019;51.034;3.728;2024-01-15T00:43:35;8.90;;;3.30;;
77828;SDS011;67019;51.034;3.728;2024-01-15T00:46:03;13.72;;;4.20;;
77828;SDS011;67019;51.034;3.728;2024-01-15T00:48:31;5.00;;;3.00;;
77828;SDS011;67019;51.034;3.728;2024-01-15T00:50:59;8.53;;;3.30;;
77828;SDS011;67019;51.034;3.728;2024-01-15T00:53:27;7.92;;;3.20;;
77828;SDS011;67019;51.034;3.728;2024-01-15T00:55:54;7.80;;;3.15;;
77828;SDS011;67019;51.034;3.728;2024-01-15T00:58:22;19.62;;;3.83;;
77828;SDS011;67019;51.034;3.728;2024-01-15T01:00:49;8.65;;;4.20;;
77828;SDS011;67019;51.034;3.728;2024-01-15T01:03:17;4.80;;;2.90;;
77828;SDS011;67019;51.034;3.728;2024-01-15T01:05:44;5.53;;;3.30;;
77828;SDS011;67019;51.034;3.728;2024-01-15T01:08:12;8.20;;;2.98;;
77828;SDS011;67019;51.034;3.728;2024-01-15T01:10:39;6.67;;;2.40;;
77828;SDS011;67019;51.034;3.728;2024-01-15T01:13:10;6.58;;;3.25;;
77828;SDS011;67019;51.034;3.728;2024-01-15T01:15:37;11.93;;;3.35;;
77828;SDS011;67019;51.034;3.728;2024-01-15T01:18:05;6.78;;;3.35;;
77828;SDS011;67019;51.034;3.728;2024-01-15T01:20:32;6.50;;;3.50;;
77828;SDS011;67019;51.034;3.728;2024-01-15T01:23:00;6.67;;;3.25;;
77828;SDS011;67019;51.034;3.728;2024-01-15T01:25:27;7.05;;;4.67;;
77828;SDS011;67019;51.034;3.728;2024-01-15T01:27:55;5.42;;;4.10;;
77828;SDS011;67019;51.034;3.728;2024-01-15T01:35:34;9.23;;;4.83;;
77828;SDS011;67019;51.034;3.728;2024-01-15T01:38:02;6.37;;;3.75;;
77828;SDS011;67019;51.034;3.728;2024-01-15T01:40:30;5.67;;;4.00;;
77828;SDS011;67019;51.034;3.728;2024-01-15T01:42:58;6.15;;;4.05;;
77828;SDS011;67019;51.034;3.728;2024-01-15T01:45:25;7.65;;;3.70;;
77828;SDS011;67019;51.034;3.728;2024-01-15T01:47:52;7.62;;;4.00;;
77828;SDS011;67019;51.034;3.728;2024-01-15T01:50:20;10.45;;;4.30;;
77828;SDS011;67019;51.034;3.728;2024-01-15T01:52:49;5.72;;;3.33;;
77828;SDS011;67019;51.034;3.728;2024-01-15T01:55:17;10.93;;;4.08;;
77828;SDS011;67019;51.034;3.728;2024-01-15T01:57:45;5.85;;;4.10;;
77828;SDS011;67019;51.034;3.728;2024-01-15T02:00:13;7.00;;;3.83;;
77828;SDS011;67019;51.034;3.728;2024-01-15T02:02:42;7.85;;;4.03;;
77828;SDS011;67019;51.034;3.728;2024-01-15T02:05:09;9.20;;;3.85;;
77828;SDS011;67019;51.034;3.728;2024-01-15T02:07:38;6.22;;;2.85;;
77828;SDS011;67019;51.034;3.728;2024-01-15T02:10:07;6.47;;;3.60;;
77828;SDS011;67019;51.034;3.728;2024-01-15T02:12:35;7.25;;;3.27;;
77828;SDS011;67019;51.034;3.728;2024-01-15T02:15:05;9.97;;;3.23;;
77828;SDS011;67019;51.034;3.728;2024-01-15T02:17:33;8.50;;;3.37;;
77828;SDS011;67019;51.034;3.728;2024-01-15T02:20:00;5.17;;;3.15;;
77828;SDS011;67019;51.034;3.728;2024-01-15T02:22:28;10.55;;;2.90;;
77828;SDS011;67019;51.034;3.728;2024-01-15T02:24:56;9.65;;;3.02;;
77828;SDS011;67019;51.034;3.728;2024-01-15T02:27:23;7.67;;;3.20;;
77828;SDS011;67019;51.034;3.728;2024-01-15T02:29:51;14.25;;;3.92;;
77828;SDS011;67019;51.034;3.728;2024-01-15T02:32:19;10.38;;;3.98;;
77828;SDS011;67019;51.034;3.728;2024-01-15T02:34:47;7.22;;;3.42;;
77828;SDS011;67019;51.034;3.728;2024-01-15T02:37:14;14.75;;;3.87;;
77828;SDS011;67019;51.034;3.728;2024-01-15T02:39:43;7.45;;;3.25;;
77828;SDS011;67019;51.034;3.728;2024-01-15T02:42:11;10.20;;;4.62;;
77828;SDS011;67019;51.034;3.728;2024-01-15T02:44:39;13.65;;;3.50;;
77828;SDS011;67019;51.034;3.728;2024-01-15T02:47:06;11.40;;;3.77;;
77828;SDS011;67019;51.034;3.728;2024-01-15T02:49:34;5.85;;;3.55;;
77828;SDS011;67019;51.034;3.728;2024-01-15T02:52:01;8.80;;;3.02;;
77828;SDS011;67019;51.034;3.728;2024-01-15T02:54:29;10.80;;;3.10;;
77828;SDS011;67019;51.034;3.728;2024-01-15T02:56:56;7.10;;;2.77;;
77828;SDS011;67019;51.034;3.728;2024-01-15T02:59:24;4.75;;;2.77;;
77828;SDS011;67019;51.034;3.728;2024-01-15T03:01:51;5.92;;;2.70;;
77828;SDS011;67019;51.034;3.728;2024-01-15T03:04:19;5.03;;;2.98;;
77828;SDS011;67019;51.034;3.728;2024-01-15T03:06:47;11.88;;;3.22;;
77828;SDS011;67019;51.034;3.728;2024-01-15T03:09:14;8.45;;;2.95;;
77828;SDS011;67019;51.034;3.728;2024-01-15T03:11:42;6.78;;;3.25;;
77828;SDS011;67019;51.034;3.728;2024-01-15T03:14:09;13.68;;;2.83;;
77828;SDS011;67019;51.034;3.728;2024-01-15T03:16:37;9.73;;;3.50;;
77828;SDS011;67019;51.034;3.728;2024-01-15T03:19:04;19.45;;;7.50;;
77828;SDS011;67019;51.034;3.728;2024-01-15T03:21:32;6.45;;;2.90;;
77828;SDS011;67019;51.034;3.728;2024-01-15T03:23:59;4.90;;;2.08;;
77828;SDS011;67019;51.034;3.728;2024-01-15T03:26:27;7.22;;;1.92;;
77828;SDS011;67019;51.034;3.728;2024-01-15T03:28:55;9.53;;;2.77;;
77828;SDS011;67019;51.034;3.728;2024-01-15T03:31:22;10.45;;;3.22;;
77828;SDS011;67019;51.034;3.728;2024-01-15T03:33:50;9.15;;;4.20;;
77828;SDS011;67019;51.034;3.728;2024-01-15T03:36:17;3.83;;;2.33;;
77828;SDS011;67019;51.034;3.728;2024-01-15T03:38:45;3.55;;;2.35;;
77828;SDS011;67019;51.034;3.728;2024-01-15T03:41:13;10.00;;;3.27;;
77828;SDS011;67019;51.034;3.728;2024-01-15T03:43:40;7.95;;;2.05;;
77828;SDS011;67019;51.034;3.728;2024-01-15T03:46:08;9.00;;;1.95;;
77828;SDS011;67019;51.034;3.728;2024-01-15T03:48:35;8.45;;;2.15;;
77828;SDS011;67019;51.034;3.728;2024-01-15T03:51:03;9.80;;;2.20;;
77828;SDS011;67019;51.034;3.728;2024-01-15T03:53:31;9.30;;;1.90;;
77828;SDS011;67019;51.034;3.728;2024-01-15T03:55:58;4.12;;;1.87;;
77828;SDS011;67019;51.034;3.728;2024-01-15T03:58:26;4.35;;;1.87;;
77828;SDS011;67019;51.034;3.728;2024-01-15T04:00:53;3.30;;;1.35;;
77828;SDS011;67019;51.034;3.728;2024-01-15T04:03:22;4.25;;;1.60;;
77828;SDS011;67019;51.034;3.728;2024-01-15T04:05:49;5.58;;;1.77;;
77828;SDS011;67019;51.034;3.728;2024-01-15T04:08:17;9.88;;;1.62;;
77828;SDS011;67019;51.034;3.728;2024-01-15T04:10:44;11.35;;;1.98;;
77828;SDS011;67019;51.034;3.728;2024-01-15T04:13:12;3.10;;;1.37;;
77828;SDS011;67019;51.034;3.728;2024-01-15T04:15:40;7.08;;;1.15;;
77828;SDS011;67019;51.034;3.728;2024-01-15T04:18:07;6.45;;;1.32;;
77828;SDS011;67019;51.034;3.728;2024-01-15T04:20:35;8.43;;;2.95;;
77828;SDS011;67019;51.034;3.728;2024-01-15T04:23:02;3.02;;;0.68;;
77828;SDS011;67019;51.034;3.728;2024-01-15T04:25:30;2.60;;;1.32;;
77828;SDS011;67019;51.034;3.728;2024-01-15T04:27:57;5.65;;;1.62;;
77828;SDS011;67019;51.034;3.728;2024-01-15T04:30:25;8.68;;;1.42;;
77828;SDS011;67019;51.034;3.728;2024-01-15T04:32:52;11.48;;;1.92;;
77828;SDS011;67019;51.034;3.728;2024-01-15T04:35:21;11.85;;;1.52;;
77828;SDS011;67019;51.034;3.728;2024-01-15T04:37:47;5.87;;;1.65;;
77828;SDS011;67019;51.034;3.728;2024-01-15T04:40:15;3.37;;;1.50;;
77828;SDS011;67019;51.034;3.728;2024-01-15T04:42:42;1.82;;;1.40;;
77828;SDS011;67019;51.034;3.728;2024-01-15T04:45:11;6.58;;;1.10;;
77828;SDS011;67019;51.034;3.728;2024-01-15T04:47:39;5.95;;;1.45;;
77828;SDS011;67019;51.034;3.728;2024-01-15T04:50:08;5.83;;;2.22;;
77828;SDS011;67019;51.034;3.728;2024-01-15T04:52:35;7.70;;;1.77;;
77828;SDS011;67019;51.034;3.728;2024-01-15T04:55:03;3.70;;;1.98;;
77828;SDS011;67019;51.034;3.728;2024-01-15T04:57:31;3.75;;;1.47;;
77828;SDS011;67019;51.034;3.728;2024-01-15T04:59:58;3.75;;;1.50;;
77828;SDS011;67019;51.034;3.728;2024-01-15T05:02:26;6.33;;;1.75;;
77828;SDS011;67019;51.034;3.728;2024-01-15T05:04:53;3.35;;;1.60;;
77828;SDS011;67019;51.034;3.728;2024-01-15T05:07:21;3.92;;;1.55;;
77828;SDS011;67019;51.034;3.728;2024-01-15T05:09:48;4.95;;;1.90;;
77828;SDS011;67019;51.034;3.728;2024-01-15T05:12:19;4.75;;;1.25;;
77828;SDS011;67019;51.034;3.728;2024-01-15T05:14:46;9.43;;;2.00;;
77828;SDS011;67019;51.034;3.728;2024-01-15T05:17:14;8.73;;;2.85;;
77828;SDS011;67019;51.034;3.728;2024-01-15T05:19:42;4.87;;;2.05;;
77828;SDS011;67019;51.034;3.728;2024-01-15T05:22:09;5.40;;;1.98;;
77828;SDS011;67019;51.034;3.728;2024-01-15T05:24:37;11.53;;;3.72;;
77828;SDS011;67019;51.034;3.728;2024-01-15T05:27:04;2.72;;;1.70;;
77828;SDS011;67019;51.034;3.728;2024-01-15T05:29:32;6.15;;;1.72;;
77828;SDS011;67019;51.034;3.728;2024-01-15T05:31:59;6.92;;;1.50;;
77828;SDS011;67019;51.034;3.728;2024-01-15T05:34:27;7.83;;;1.65;;
77828;SDS011;67019;51.034;3.728;2024-01-15T05:36:54;12.85;;;2.83;;
77828;SDS011;67019;51.034;3.728;2024-01-15T05:39:22;7.90;;;1.98;;
77828;SDS011;67019;51.034;3.728;2024-01-15T05:41:49;9.35;;;2.72;;
77828;SDS011;67019;51.034;3.728;2024-01-15T05:44:17;13.72;;;2.30;;
77828;SDS011;67019;51.034;3.728;2024-01-15T05:46:45;7.72;;;2.00;;
77828;SDS011;67019;51.034;3.728;2024-01-15T05:49:12;8.45;;;1.82;;
77828;SDS011;67019;51.034;3.728;2024-01-15T05:51:40;5.03;;;2.33;;
77828;SDS011;67019;51.034;3.728;2024-01-15T05:54:07;9.30;;;2.47;;
77828;SDS011;67019;51.034;3.728;2024-01-15T05:56:35;7.75;;;2.35;;
77828;SDS011;67019;51.034;3.728;2024-01-15T05:59:02;5.92;;;1.95;;
77828;SDS011;67019;51.034;3.728;2024-01-15T06:01:30;5.12;;;2.00;;
77828;SDS011;67019;51.034;3.728;2024-01-15T06:03:57;6.20;;;2.20;;
77828;SDS011;67019;51.034;3.728;2024-01-15T06:06:25;12.43;;;3.58;;
77828;SDS011;67019;51.034;3.728;2024-01-15T06:08:52;7.92;;;2.27;;
77828;SDS011;67019;51.034;3.728;2024-01-15T06:11:20;6.42;;;2.20;;
77828;SDS011;67019;51.034;3.728;2024-01-15T06:13:48;15.28;;;2.08;;
77828;SDS011;67019;51.034;3.728;2024-01-15T06:16:15;3.17;;;1.80;;
77828;SDS011;67019;51.034;3.728;2024-01-15T06:18:44;10.27;;;3.47;;
77828;SDS011;67019;51.034;3.728;2024-01-15T06:21:12;9.20;;;1.80;;
77828;SDS011;67019;51.034;3.728;2024-01-15T06:23:40;13.28;;;2.75;;
77828;SDS011;67019;51.034;3.728;2024-01-15T06:26:08;3.42;;;2.10;;
77828;SDS011;67019;51.034;3.728;2024-01-15T06:28:37;6.67;;;2.47;;
77828;SDS011;67019;51.034;3.728;2024-01-15T06:31:06;3.92;;;2.08;;
77828;SDS011;67019;51.034;3.728;2024-01-15T06:33:33;7.30;;;1.80;;
77828;SDS011;67019;51.034;3.728;2024-01-15T06:36:01;10.95;;;2.17;;
77828;SDS011;67019;51.034;3.728;2024-01-15T06:38:28;6.80;;;1.60;;
77828;SDS011;67019;51.034;3.728;2024-01-15T06:40:56;7.25;;;3.27;;
77828;SDS011;67019;51.034;3.728;2024-01-15T06:43:24;6.58;;;2.27;;
77828;SDS011;67019;51.034;3.728;2024-01-15T06:45:51;7.35;;;1.87;;
77828;SDS011;67019;51.034;3.728;2024-01-15T06:48:19;9.05;;;2.05;;
77828;SDS011;67019;51.034;3.728;2024-01-15T06:50:46;6.35;;;2.08;;
77828;SDS011;67019;51.034;3.728;2024-01-15T06:53:14;6.97;;;1.50;;
77828;SDS011;67019;51.034;3.728;2024-01-15T06:55:42;7.92;;;1.80;;
77828;SDS011;67019;51.034;3.728;2024-01-15T06:58:09;8.68;;;2.50;;
77828;SDS011;67019;51.034;3.728;2024-01-15T07:00:37;9.65;;;3.25;;
77828;SDS011;67019;51.034;3.728;2024-01-15T07:03:06;13.68;;;2.58;;
77828;SDS011;67019;51.034;3.728;2024-01-15T07:05:34;4.95;;;2.02;;
77828;SDS011;67019;51.034;3.728;2024-01-15T07:08:03;6.37;;;1.80;;
77828;SDS011;67019;51.034;3.728;2024-01-15T07:10:30;11.85;;;3.83;;
77828;SDS011;67019;51.034;3.728;2024-01-15T07:12:58;6.30;;;2.08;;
77828;SDS011;67019;51.034;3.728;2024-01-15T07:15:26;16.23;;;2.47;;
77828;SDS011;67019;51.034;3.728;2024-01-15T07:17:53;4.75;;;2.70;;
77828;SDS011;67019;51.034;3.728;2024-01-15T07:20:21;8.58;;;2.10;;
77828;SDS011;67019;51.034;3.728;2024-01-15T07:22:49;14.90;;;3.22;;
77828;SDS011;67019;51.034;3.728;2024-01-15T07:25:16;13.18;;;2.62;;
77828;SDS011;67019;51.034;3.728;2024-01-15T07:27:44;7.20;;;2.47;;
77828;SDS011;67019;51.034;3.728;2024-01-15T07:30:12;12.20;;;2.33;;
77828;SDS011;67019;51.034;3.728;2024-01-15T07:32:40;7.42;;;2.67;;
77828;SDS011;67019;51.034;3.728;2024-01-15T07:35:08;11.30;;;1.85;;
77828;SDS011;67019;51.034;3.728;2024-01-15T07:37:36;8.10;;;2.42;;
77828;SDS011;67019;51.034;3.728;2024-01-15T07:40:04;10.88;;;2.40;;
77828;SDS011;67019;51.034;3.728;2024-01-15T07:42:34;13.85;;;2.65;;
77828;SDS011;67019;51.034;3.728;2024-01-15T07:45:03;8.48;;;2.52;;
77828;SDS011;67019;51.034;3.728;2024-01-15T07:47:31;12.17;;;2.30;;
77828;SDS011;67019;51.034;3.728;2024-01-15T07:49:59;11.57;;;3.45;;
77828;SDS011;67019;51.034;3.728;2024-01-15T07:52:27;15.08;;;4.15;;
77828;SDS011;67019;51.034;3.728;2024-01-15T07:54:57;9.65;;;2.55;;
77828;SDS011;67019;51.034;3.728;2024-01-15T07:57:26;7.85;;;2.50;;
77828;SDS011;67019;51.034;3.728;2024-01-15T07:59:54;14.90;;;2.77;;
77828;SDS011;67019;51.034;3.728;2024-01-15T08:02:22;7.45;;;2.37;;
77828;SDS011;67019;51.034;3.728;2024-01-15T08:04:49;4.50;;;2.05;;
77828;SDS011;67019;51.034;3.728;2024-01-15T08:07:17;6.85;;;1.90;;
77828;SDS011;67019;51.034;3.728;2024-01-15T08:09:44;8.40;;;3.10;;
77828;SDS011;67019;51.034;3.728;2024-01-15T08:12:13;5.33;;;1.82;;
77828;SDS011;67019;51.034;3.728;2024-01-15T08:14:41;18.17;;;4.37;;
77828;SDS011;67019;51.034;3.728;2024-01-15T08:17:08;11.20;;;1.70;;
77828;SDS011;67019;51.034;3.728;2024-01-15T08:19:36;6.25;;;1.90;;
77828;SDS011;67019;51.034;3.728;2024-01-15T08:22:05;13.95;;;2.12;;
77828;SDS011;67019;51.034;3.728;2024-01-15T08:24:33;4.67;;;1.52;;
77828;SDS011;67019;51.034;3.728;2024-01-15T08:27:00;6.08;;;2.05;;
77828;SDS011;67019;51.034;3.728;2024-01-15T08:29:28;7.97;;;1.80;;
77828;SDS011;67019;51.034;3.728;2024-01-15T08:31:57;6.60;;;2.27;;
77828;SDS011;67019;51.034;3.728;2024-01-15T08:34:25;10.20;;;2.30;;
77828;SDS011;67019;51.034;3.728;2024-01-15T08:36:52;7.65;;;1.40;;
77828;SDS011;67019;51.034;3.728;2024-01-15T08:39:20;9.30;;;2.15;;
77828;SDS011;67019;51.034;3.728;2024-01-15T08:41:47;9.05;;;2.30;;
77828;SDS011;67019;51.034;3.728;2024-01-15T08:44:15;10.50;;;2.12;;
77828;SDS011;67019;51.034;3.728;2024-01-15T08:46:42;8.65;;;1.92;;
77828;SDS011;67019;51.034;3.728;2024-01-15T08:49:10;11.20;;;1.87;;
77828;SDS011;67019;51.034;3.728;2024-01-15T08:51:38;10.50;;;1.75;;
77828;SDS011;67019;51.034;3.728;2024-01-15T08:54:05;8.20;;;2.12;;
77828;SDS011;67019;51.034;3.728;2024-01-15T08:56:34;9.55;;;2.15;;
77828;SDS011;67019;51.034;3.728;2024-01-15T08:59:01;15.08;;;2.17;;
77828;SDS011;67019;51.034;3.728;2024-01-15T09:01:29;9.18;;;2.27;;
77828;SDS011;67019;51.034;3.728;2024-01-15T09:03:56;11.70;;;2.17;;
77828;SDS011;67019;51.034;3.728;2024-01-15T09:06:24;15.40;;;4.53;;
77828;SDS011;67019;51.034;3.728;2024-01-15T09:08:52;5.65;;;1.65;;
77828;SDS011;67019;51.034;3.728;2024-01-15T09:11:19;8.45;;;1.90;;
77828;SDS011;67019;51.034;3.728;2024-01-15T09:13:49;6.40;;;2.12;;
77828;SDS011;67019;51.034;3.728;2024-01-15T09:16:17;5.70;;;1.92;;
77828;SDS011;67019;51.034;3.728;2024-01-15T09:18:45;8.23;;;1.80;;
77828;SDS011;67019;51.034;3.728;2024-01-15T09:21:12;9.90;;;2.72;;
77828;SDS011;67019;51.034;3.728;2024-01-15T09:23:40;10.75;;;1.40;;
77828;SDS011;67019;51.034;3.728;2024-01-15T09:26:08;4.10;;;1.60;;
77828;SDS011;67019;51.034;3.728;2024-01-15T09:28:35;11.20;;;1.65;;
77828;SDS011;67019;51.034;3.728;2024-01-15T09:31:03;8.93;;;2.45;;
77828;SDS011;67019;51.034;3.728;2024-01-15T09:33:32;8.28;;;1.27;;
77828;SDS011;67019;51.034;3.728;2024-01-15T09:36:03;11.30;;;2.15;;
77828;SDS011;67019;51.034;3.728;2024-01-15T09:38:31;7.97;;;1.67;;
77828;SDS011;67019;51.034;3.728;2024-01-15T09:40:59;4.03;;;0.93;;
77828;SDS011;67019;51.034;3.728;2024-01-15T09:43:26;5.97;;;2.42;;
77828;SDS011;67019;51.034;3.728;2024-01-15T09:45:54;9.18;;;1.22;;
77828;SDS011;67019;51.034;3.728;2024-01-15T09:48:22;6.37;;;1.27;;
77828;SDS011;67019;51.034;3.728;2024-01-15T09:50:51;7.90;;;1.47;;
77828;SDS011;67019;51.034;3.728;2024-01-15T09:53:19;7.00;;;1.80;;
77828;SDS011;67019;51.034;3.728;2024-01-15T09:55:49;2.72;;;1.50;;
77828;SDS011;67019;51.034;3.728;2024-01-15T09:58:17;14.68;;;1.95;;
77828;SDS011;67019;51.034;3.728;2024-01-15T10:00:44;8.20;;;1.80;;
77828;SDS011;67019;51.034;3.728;2024-01-15T10:03:16;8.75;;;2.95;;
77828;SDS011;67019;51.034;3.728;2024-01-15T10:05:45;10.10;;;2.08;;
77828;SDS011;67019;51.034;3.728;2024-01-15T10:08:12;8.58;;;1.32;;
77828;SDS011;67019;51.034;3.728;2024-01-15T10:10:41;5.25;;;1.22;;
77828;SDS011;67019;51.034;3.728;2024-01-15T10:16:00;6.42;;;1.45;;
77828;SDS011;67019;51.034;3.728;2024-01-15T10:18:29;5.00;;;1.67;;
77828;SDS011;67019;51.034;3.728;2024-01-15T10:20:56;12.40;;;1.67;;
77828;SDS011;67019;51.034;3.728;2024-01-15T10:23:24;7.83;;;1.25;;
77828;SDS011;67019;51.034;3.728;2024-01-15T10:25:52;7.72;;;2.60;;
77828;SDS011;67019;51.034;3.728;2024-01-15T10:28:19;4.45;;;1.55;;
77828;SDS011;67019;51.034;3.728;2024-01-15T10:30:47;6.10;;;1.40;;
77828;SDS011;67019;51.034;3.728;2024-01-15T10:35:46;4.70;;;1.17;;
77828;SDS011;67019;51.034;3.728;2024-01-15T10:38:13;9.88;;;1.70;;
77828;SDS011;67019;51.034;3.728;2024-01-15T10:40:43;9.73;;;1.40;;
77828;SDS011;67019;51.034;3.728;2024-01-15T10:43:11;8.28;;;1.75;;
77828;SDS011;67019;51.034;3.728;2024-01-15T10:45:38;4.20;;;1.72;;
77828;SDS011;67019;51.034;3.728;2024-01-15T10:48:08;5.67;;;1.60;;
77828;SDS011;67019;51.034;3.728;2024-01-15T10:50:35;8.83;;;2.20;;
77828;SDS011;67019;51.034;3.728;2024-01-15T10:53:03;10.93;;;1.65;;
77828;SDS011;67019;51.034;3.728;2024-01-15T10:55:33;3.25;;;1.62;;
77828;SDS011;67019;51.034;3.728;2024-01-15T10:58:03;9.73;;;2.10;;
77828;SDS011;67019;51.034;3.728;2024-01-15T11:00:36;6.08;;;1.70;;
77828;SDS011;67019;51.034;3.728;2024-01-15T11:03:05;10.03;;;1.40;;
77828;SDS011;67019;51.034;3.728;2024-01-15T11:05:34;8.65;;;1.80;;
77828;SDS011;67019;51.034;3.728;2024-01-15T11:08:08;7.75;;;1.77;;
77828;SDS011;67019;51.034;3.728;2024-01-15T11:10:46;3.55;;;1.30;;
77828;SDS011;67019;51.034;3.728;2024-01-15T11:13:19;9.08;;;1.75;;
77828;SDS011;67019;51.034;3.728;2024-01-15T11:16:02;7.67;;;2.17;;
77828;SDS011;67019;51.034;3.728;2024-01-15T11:18:35;18.52;;;2.50;;
77828;SDS011;67019;51.034;3.728;2024-01-15T11:23:45;4.00;;;1.00;;
77828;SDS011;67019;51.034;3.728;2024-01-15T11:26:47;2.40;;;0.88;;
77828;SDS011;67019;51.034;3.728;2024-01-15T11:29:03;8.05;;;1.35;;
77828;SDS011;67019;51.034;3.728;2024-01-15T11:34:14;9.35;;;1.67;;
77828;SDS011;67019;51.034;3.728;2024-01-15T11:42:03;3.05;;;1.30;;
77828;SDS011;67019;51.034;3.728;2024-01-15T11:44:31;5.62;;;1.32;;
77828;SDS011;67019;51.034;3.728;2024-01-15T11:47:00;7.55;;;1.27;;
77828;SDS011;67019;51.034;3.728;2024-01-15T11:52:31;4.53;;;1.45;;
77828;SDS011;67019;51.034;3.728;2024-01-15T11:57:46;6.10;;;1.15;;
77828;SDS011;67019;51.034;3.728;2024-01-15T12:00:17;6.22;;;1.22;;
77828;SDS011;67019;51.034;3.728;2024-01-15T12:02:45;4.17;;;1.45;;
77828;SDS011;67019;51.034;3.728;2024-01-15T12:05:15;6.33;;;1.25;;
77828;SDS011;67019;51.034;3.728;2024-01-15T12:07:49;7.35;;;1.75;;
77828;SDS011;67019;51.034;3.728;2024-01-15T12:10:22;6.25;;;1.42;;
77828;SDS011;67019;51.034;3.728;2024-01-15T12:15:30;8.30;;;2.60;;
77828;SDS011;67019;51.034;3.728;2024-01-15T12:17:55;3.15;;;1.30;;
77828;SDS011;67019;51.034;3.728;2024-01-15T12:20:24;12.45;;;1.35;;
77828;SDS011;67019;51.034;3.728;2024-01-15T12:22:53;2.62;;;0.93;;
77828;SDS011;67019;51.034;3.728;2024-01-15T12:25:24;6.80;;;1.55;;
77828;SDS011;67019;51.034;3.728;2024-01-15T12:27:53;2.67;;;1.00;;
77828;SDS011;67019;51.034;3.728;2024-01-15T12:30:21;7.50;;;1.40;;
77828;SDS011;67019;51.034;3.728;2024-01-15T12:32:49;7.33;;;1.98;;
77828;SDS011;67019;51.034;3.728;2024-01-15T12:35:16;9.43;;;1.90;;
77828;SDS011;67019;51.034;3.728;2024-01-15T12:37:45;14.13;;;1.77;;
77828;SDS011;67019;51.034;3.728;2024-01-15T12:40:19;11.60;;;1.80;;
77828;SDS011;67019;51.034;3.728;2024-01-15T12:45:11;15.45;;;1.82;;
77828;SDS011;67019;51.034;3.728;2024-01-15T12:47:40;8.00;;;1.82;;
77828;SDS011;67019;51.034;3.728;2024-01-15T12:50:09;9.58;;;2.00;;
77828;SDS011;67019;51.034;3.728;2024-01-15T12:52:37;10.70;;;1.35;;
77828;SDS011;67019;51.034;3.728;2024-01-15T12:55:07;12.58;;;2.10;;
77828;SDS011;67019;51.034;3.728;2024-01-15T12:57:35;8.40;;;2.20;;
77828;SDS011;67019;51.034;3.728;2024-01-15T13:00:04;7.00;;;2.25;;
77828;SDS011;67019;51.034;3.728;2024-01-15T13:02:38;20.00;;;2.42;;
77828;SDS011;67019;51.034;3.728;2024-01-15T13:05:07;14.50;;;1.45;;
77828;SDS011;67019;51.034;3.728;2024-01-15T13:07:37;17.35;;;3.25;;
77828;SDS011;67019;51.034;3.728;2024-01-15T13:10:05;7.17;;;2.10;;
77828;SDS011;67019;51.034;3.728;2024-01-15T13:12:34;9.53;;;1.62;;
77828;SDS011;67019;51.034;3.728;2024-01-15T13:15:03;14.68;;;1.82;;
77828;SDS011;67019;51.034;3.728;2024-01-15T13:17:31;7.60;;;1.25;;
77828;SDS011;67019;51.034;3.728;2024-01-15T13:19:59;8.45;;;1.75;;
77828;SDS011;67019;51.034;3.728;2024-01-15T13:22:26;8.73;;;1.37;;
77828;SDS011;67019;51.034;3.728;2024-01-15T13:24:55;11.53;;;2.30;;
77828;SDS011;67019;51.034;3.728;2024-01-15T13:27:23;5.20;;;1.02;;
77828;SDS011;67019;51.034;3.728;2024-01-15T13:29:50;7.25;;;1.80;;
77828;SDS011;67019;51.034;3.728;2024-01-15T13:32:22;11.83;;;1.98;;
77828;SDS011;67019;51.034;3.728;2024-01-15T13:34:55;7.50;;;1.42;;
77828;SDS011;67019;51.034;3.728;2024-01-15T13:37:23;7.35;;;1.82;;
77828;SDS011;67019;51.034;3.728;2024-01-15T13:39:53;5.42;;;1.60;;
77828;SDS011;67019;51.034;3.728;2024-01-15T13:42:20;6.37;;;1.35;;
77828;SDS011;67019;51.034;3.728;2024-01-15T13:44:48;5.05;;;1.25;;
77828;SDS011;67019;51.034;3.728;2024-01-15T13:47:15;8.03;;;1.60;;
77828;SDS011;67019;51.034;3.728;2024-01-15T13:49:43;8.80;;;1.75;;
77828;SDS011;67019;51.034;3.728;2024-01-15T13:52:10;9.68;;;1.52;;
77828;SDS011;67019;51.034;3.728;2024-01-15T13:54:38;3.40;;;1.25;;
77828;SDS011;67019;51.034;3.728;2024-01-15T13:57:06;4.65;;;1.72;;
77828;SDS011;67019;51.034;3.728;2024-01-15T13:59:34;8.70;;;1.60;;
77828;SDS011;67019;51.034;3.728;2024-01-15T14:02:01;4.35;;;1.47;;
77828;SDS011;67019;51.034;3.728;2024-01-15T14:04:29;8.80;;;1.92;;
77828;SDS011;67019;51.034;3.728;2024-01-15T14:06:58;7.83;;;1.15;;
77828;SDS011;67019;51.034;3.728;2024-01-15T14:09:25;7.75;;;1.60;;
77828;SDS011;67019;51.034;3.728;2024-01-15T14:11:53;10.20;;;1.92;;
77828;SDS011;67019;51.034;3.728;2024-01-15T14:14:21;6.83;;;1.60;;
77828;SDS011;67019;51.034;3.728;2024-01-15T14:16:49;10.60;;;3.33;;
77828;SDS011;67019;51.034;3.728;2024-01-15T14:19:17;4.92;;;1.22;;
77828;SDS011;67019;51.034;3.728;2024-01-15T14:21:44;4.33;;;1.30;;
77828;SDS011;67019;51.034;3.728;2024-01-15T14:24:12;7.92;;;2.35;;
77828;SDS011;67019;51.034;3.728;2024-01-15T14:26:40;8.18;;;1.90;;
77828;SDS011;67019;51.034;3.728;2024-01-15T14:29:08;11.90;;;1.45;;
77828;SDS011;67019;51.034;3.728;2024-01-15T14:31:35;8.53;;;1.60;;
77828;SDS011;67019;51.034;3.728;2024-01-15T14:34:03;8.13;;;1.98;;
77828;SDS011;67019;51.034;3.728;2024-01-15T14:36:30;8.75;;;1.42;;
77828;SDS011;67019;51.034;3.728;2024-01-15T14:38:58;10.95;;;2.05;;
77828;SDS011;67019;51.034;3.728;2024-01-15T14:41:26;9.13;;;1.98;;
77828;SDS011;67019;51.034;3.728;2024-01-15T14:43:53;14.45;;;1.62;;
77828;SDS011;67019;51.034;3.728;2024-01-15T14:46:23;4.85;;;1.72;;
77828;SDS011;67019;51.034;3.728;2024-01-15T14:48:50;12.15;;;2.30;;
77828;SDS011;67019;51.034;3.728;2024-01-15T14:51:18;14.83;;;3.80;;
77828;SDS011;67019;51.034;3.728;2024-01-15T14:53:45;6.20;;;2.33;;
77828;SDS011;67019;51.034;3.728;2024-01-15T14:56:13;4.53;;;1.57;;
77828;SDS011;67019;51.034;3.728;2024-01-15T14:58:41;3.92;;;1.22;;
77828;SDS011;67019;51.034;3.728;2024-01-15T15:01:08;3.08;;;0.88;;
77828;SDS011;67019;51.034;3.728;2024-01-15T15:03:37;5.47;;;1.72;;
77828;SDS011;67019;51.034;3.728;2024-01-15T15:06:06;2.52;;;1.10;;
77828;SDS011;67019;51.034;3.728;2024-01-15T15:08:34;4.55;;;1.25;;
77828;SDS011;67019;51.034;3.728;2024-01-15T15:11:03;8.13;;;1.20;;
77828;SDS011;67019;51.034;3.728;2024-01-15T15:13:31;5.20;;;1.22;;
77828;SDS011;67019;51.034;3.728;2024-01-15T15:15:58;13.85;;;1.55;;
77828;SDS011;67019;51.034;3.728;2024-01-15T15:18:27;5.65;;;1.60;;
77828;SDS011;67019;51.034;3.728;2024-01-15T15:20:56;5.25;;;1.92;;
77828;SDS011;67019;51.034;3.728;2024-01-15T15:23:24;8.00;;;1.37;;